createdAt,value
2023-05-10T00:02:09.647Z,83.01
2023-05-10T00:04:36.610Z,83.63
2023-05-10T00:07:03.593Z,83.30
2023-05-10T00:09:30.555Z,84.17
2023-05-10T00:11:59.472Z,83.77
2023-05-10T00:14:26.478Z,83.48
2023-05-10T00:16:53.559Z,82.94
2023-05-10T00:19:20.759Z,83.01
2023-05-10T00:21:47.735Z,82.76
2023-05-10T00:24:14.717Z,82.47
2023-05-10T00:26:43.212Z,81.94
2023-05-10T00:29:10.402Z,82.20
2023-05-10T00:31:37.370Z,82.38
2023-05-10T00:34:04.543Z,83.48
2023-05-10T00:36:32.282Z,84.63
2023-05-10T00:38:59.553Z,83.04
2023-05-10T00:41:26.582Z,83.23
2023-05-10T00:43:54.823Z,82.10
2023-05-10T00:46:22.552Z,82.07
2023-05-10T00:48:50.133Z,82.42
2023-05-10T00:51:17.311Z,83.86
2023-05-10T00:53:46.982Z,82.96
2023-05-10T00:56:14.364Z,83.18
2023-05-10T00:58:41.514Z,82.66
2023-05-10T01:01:10.230Z,81.83
2023-05-10T01:03:38.022Z,80.60
2023-05-10T01:06:05.193Z,80.09
2023-05-10T01:08:32.432Z,81.09
2023-05-10T01:10:59.854Z,80.90
2023-05-10T01:13:36.171Z,81.11
2023-05-10T01:16:04.439Z,80.31
2023-05-10T01:18:39.037Z,80.32
2023-05-10T01:21:21.007Z,79.97
2023-05-10T01:24:25.506Z,79.89
2023-05-10T01:27:19.921Z,79.44
2023-05-10T01:30:22.297Z,80.06
2023-05-10T01:33:17.644Z,80.00
2023-05-10T01:35:52.062Z,80.08
2023-05-10T01:38:42.217Z,79.70
2023-05-10T01:41:18.639Z,80.65
2023-05-10T01:43:51.602Z,80.65
2023-05-10T01:46:28.247Z,80.27
2023-05-10T01:48:59.307Z,80.27
2023-05-10T01:51:32.545Z,79.82
2023-05-10T01:54:03.209Z,79.50
2023-05-10T01:56:33.268Z,79.05
2023-05-10T01:59:04.175Z,79.73
2023-05-10T02:01:32.161Z,78.93
2023-05-10T02:04:00.238Z,78.97
2023-05-10T02:06:28.366Z,79.21
2023-05-10T02:08:56.830Z,78.86
2023-05-10T02:11:26.074Z,79.24
2023-05-10T02:13:56.247Z,79.36
2023-05-10T02:16:31.999Z,79.18
2023-05-10T02:19:03.002Z,79.61
2023-05-10T02:21:31.900Z,78.89
2023-05-10T02:24:00.215Z,78.32
2023-05-10T02:26:29.976Z,78.53
2023-05-10T02:28:59.434Z,78.79
2023-05-10T02:31:27.508Z,78.74
2023-05-10T02:33:55.659Z,78.45
2023-05-10T02:36:23.976Z,78.13
2023-05-10T02:38:54.260Z,78.71
2023-05-10T02:41:24.147Z,78.01
2023-05-10T02:43:58.609Z,78.47
2023-05-10T02:46:25.857Z,79.41
2023-05-10T02:48:52.808Z,79.48
2023-05-10T02:51:24.198Z,78.34
2023-05-10T02:53:54.429Z,78.44
2023-05-10T02:56:26.850Z,79.23
2023-05-10T02:58:54.023Z,79.17
2023-05-10T03:01:21.090Z,79.43
2023-05-10T03:03:48.026Z,79.50
2023-05-10T03:06:15.443Z,79.00
2023-05-10T03:08:42.494Z,78.90
2023-05-10T03:11:16.516Z,79.33
2023-05-10T03:13:54.656Z,78.82
2023-05-10T03:16:30.408Z,78.90
2023-05-10T03:19:00.071Z,79.13
2023-05-10T03:21:30.940Z,79.50
2023-05-10T03:24:08.102Z,79.88
2023-05-10T03:26:38.253Z,80.00
2023-05-10T03:29:15.354Z,80.01
2023-05-10T03:31:42.609Z,80.95
2023-05-10T03:34:09.661Z,79.33
2023-05-10T03:36:37.182Z,78.17
2023-05-10T03:39:04.164Z,78.51
2023-05-10T03:41:31.509Z,77.20
2023-05-10T03:43:58.456Z,78.02
2023-05-10T03:46:25.681Z,78.58
2023-05-10T03:48:52.956Z,80.79
2023-05-10T03:51:20.563Z,81.58
2023-05-10T03:53:48.756Z,81.20
2023-05-10T03:56:16.234Z,82.03
2023-05-10T03:58:43.285Z,80.70
2023-05-10T04:01:10.791Z,81.30
2023-05-10T04:03:37.967Z,81.31
2023-05-10T04:06:06.392Z,80.47
2023-05-10T04:08:33.760Z,79.71
2023-05-10T04:11:13.986Z,79.07
2023-05-10T04:13:41.096Z,78.64
2023-05-10T04:16:09.312Z,77.42
2023-05-10T04:18:37.981Z,78.00
2023-05-10T04:21:05.462Z,77.42
2023-05-10T04:23:32.393Z,76.79
2023-05-10T04:26:02.946Z,76.82
2023-05-10T04:28:29.933Z,76.68
2023-05-10T04:31:06.997Z,76.68
2023-05-10T04:33:34.938Z,76.33
2023-05-10T04:36:02.258Z,76.05
2023-05-10T04:38:29.752Z,75.48
2023-05-10T04:41:06.263Z,75.01
2023-05-10T04:43:33.344Z,74.34
2023-05-10T04:46:00.597Z,73.63
2023-05-10T04:48:27.866Z,73.03
2023-05-10T04:50:55.333Z,72.04
2023-05-10T04:53:22.378Z,72.48
2023-05-10T04:55:49.941Z,71.99
2023-05-10T04:58:17.062Z,74.33
2023-05-10T05:00:44.136Z,74.04
2023-05-10T05:03:11.386Z,73.59
2023-05-10T05:05:38.655Z,73.37
2023-05-10T05:08:05.796Z,73.07
2023-05-10T05:10:32.992Z,74.60
2023-05-10T05:12:59.981Z,73.88
2023-05-10T05:15:28.508Z,73.67
2023-05-10T05:17:55.592Z,72.25
2023-05-10T05:20:22.704Z,71.70
2023-05-10T05:22:50.126Z,70.26
2023-05-10T05:25:19.258Z,69.95
2023-05-10T05:27:47.462Z,67.79
2023-05-10T05:30:14.527Z,67.00
2023-05-10T05:32:41.565Z,66.79
2023-05-10T05:35:08.808Z,66.75
2023-05-10T05:37:37.505Z,64.91
2023-05-10T05:40:05.950Z,66.82
2023-05-10T05:42:34.335Z,67.32
2023-05-10T05:45:02.516Z,67.98
2023-05-10T05:47:34.521Z,68.76
2023-05-10T05:50:03.149Z,67.53
2023-05-10T05:52:34.218Z,67.06
2023-05-10T05:55:01.259Z,67.34
2023-05-10T05:57:28.992Z,65.87
2023-05-10T05:59:56.263Z,64.70
2023-05-10T06:02:23.878Z,66.19
2023-05-10T06:04:51.495Z,66.07
2023-05-10T06:07:20.935Z,64.83
2023-05-10T06:09:48.044Z,64.62
2023-05-10T06:12:15.201Z,65.03
2023-05-10T06:14:42.260Z,66.13
2023-05-10T06:17:09.370Z,65.28
2023-05-10T06:19:36.830Z,65.45
2023-05-10T06:22:04.909Z,65.61
2023-05-10T06:24:31.864Z,65.25
2023-05-10T06:27:01.170Z,65.32
2023-05-10T06:29:29.448Z,64.84
2023-05-10T06:31:56.653Z,64.52
2023-05-10T06:34:23.904Z,63.67
2023-05-10T06:36:50.858Z,62.99
2023-05-10T06:39:18.343Z,63.03
2023-05-10T06:41:45.394Z,62.14
2023-05-10T06:44:12.510Z,62.64
2023-05-10T06:46:39.737Z,62.00
2023-05-10T06:49:06.813Z,61.61
2023-05-10T06:51:34.019Z,62.36
2023-05-10T06:54:01.277Z,63.05
2023-05-10T06:56:33.189Z,62.94
2023-05-10T06:59:00.708Z,62.37
2023-05-10T07:01:27.868Z,62.01
2023-05-10T07:03:54.940Z,61.92
2023-05-10T07:06:33.028Z,61.70
2023-05-10T07:09:04.129Z,61.49
2023-05-10T07:11:35.038Z,61.39
2023-05-10T07:14:04.022Z,60.53
2023-05-10T07:16:36.399Z,59.06
2023-05-10T07:19:03.952Z,57.86
2023-05-10T07:27:32.186Z,59.18
2023-05-10T07:29:59.829Z,58.36
2023-05-10T07:32:28.710Z,59.47
2023-05-10T07:34:58.168Z,59.76
2023-05-10T07:37:25.176Z,58.18
2023-05-10T07:39:56.130Z,56.09
2023-05-10T07:42:23.639Z,57.41
2023-05-10T07:44:50.700Z,57.70
2023-05-10T07:47:17.640Z,58.90
2023-05-10T07:49:46.659Z,58.49
2023-05-10T07:52:14.851Z,58.68
2023-05-10T07:54:44.541Z,59.22
2023-05-10T07:57:11.921Z,60.22
2023-05-10T07:59:38.930Z,60.32
2023-05-10T08:02:07.215Z,59.64
2023-05-10T08:04:34.643Z,59.76
2023-05-10T08:07:02.812Z,59.05
2023-05-10T08:09:30.013Z,59.11
2023-05-10T08:12:01.249Z,59.62
2023-05-10T08:14:34.026Z,58.75
2023-05-10T08:17:01.165Z,59.46
2023-05-10T08:19:28.420Z,58.83
2023-05-10T08:21:57.107Z,58.28
2023-05-10T08:24:24.204Z,57.65
2023-05-10T08:26:51.153Z,55.80
2023-05-10T08:29:18.159Z,56.01
2023-05-10T08:31:45.563Z,56.03
2023-05-10T08:34:13.658Z,56.79
2023-05-10T08:36:41.278Z,57.85
2023-05-10T08:39:16.133Z,57.93
2023-05-10T08:41:53.247Z,57.58
2023-05-10T08:44:22.295Z,56.50
2023-05-10T08:46:55.882Z,57.94
2023-05-10T08:49:26.547Z,56.58
2023-05-10T08:51:56.152Z,56.38
2023-05-10T08:54:25.599Z,55.37
2023-05-10T08:56:56.358Z,55.60
2023-05-10T08:59:23.973Z,55.88
2023-05-10T09:01:52.535Z,53.92
2023-05-10T09:04:20.677Z,52.61
2023-05-10T09:06:47.808Z,54.64
2023-05-10T09:09:15.854Z,55.42
2023-05-10T09:11:43.250Z,55.68
2023-05-10T09:14:10.949Z,55.90
2023-05-10T09:16:42.430Z,55.72
2023-05-10T09:19:12.460Z,54.96
2023-05-10T09:21:41.655Z,54.93
2023-05-10T09:24:11.442Z,56.08
2023-05-10T09:26:49.392Z,55.41
2023-05-10T09:29:17.775Z,55.60
2023-05-10T09:31:47.713Z,55.08
2023-05-10T09:34:30.381Z,54.60
2023-05-10T09:37:01.732Z,56.03
2023-05-10T09:39:37.303Z,55.27
2023-05-10T09:42:12.048Z,55.98
2023-05-10T09:44:41.420Z,55.27
2023-05-10T09:47:08.761Z,57.71
2023-05-10T09:49:36.262Z,56.96
2023-05-10T09:52:05.151Z,58.21
2023-05-10T09:54:33.221Z,57.54
2023-05-10T09:57:00.855Z,56.94
2023-05-10T09:59:29.724Z,56.63
2023-05-10T10:02:01.573Z,56.49
2023-05-10T10:04:29.528Z,55.85
2023-05-10T10:07:05.941Z,55.37
2023-05-10T10:09:34.290Z,54.76
2023-05-10T10:12:03.482Z,55.65
2023-05-10T10:14:31.981Z,54.91
2023-05-10T10:19:34.741Z,54.67
2023-05-10T10:22:02.856Z,54.54
2023-05-10T10:24:30.647Z,55.09
2023-05-10T10:27:05.693Z,55.33
2023-05-10T10:29:43.338Z,52.83
2023-05-10T10:32:27.185Z,52.50
2023-05-10T10:34:57.979Z,53.35
2023-05-10T10:37:44.501Z,53.79
2023-05-10T10:40:34.993Z,54.24
2023-05-10T10:43:25.767Z,54.46
2023-05-10T10:46:15.830Z,54.32
2023-05-10T10:48:49.261Z,55.14
2023-05-10T10:51:16.498Z,56.54
2023-05-10T10:53:44.589Z,55.45
2023-05-10T10:56:16.442Z,54.97
2023-05-10T10:58:54.752Z,54.68
2023-05-10T11:01:23.523Z,54.64
2023-05-10T11:04:07.437Z,54.57
2023-05-10T11:06:37.021Z,55.79
2023-05-10T11:09:09.536Z,54.69
2023-05-10T11:11:37.614Z,54.49
2023-05-10T11:14:06.877Z,55.92
2023-05-10T11:16:43.982Z,55.90
2023-05-10T11:19:14.317Z,56.44
2023-05-10T11:21:48.932Z,56.57
2023-05-10T11:24:20.929Z,55.94
2023-05-10T11:26:52.056Z,55.57
2023-05-10T11:29:21.162Z,54.47
2023-05-10T11:31:49.558Z,53.87
2023-05-10T11:34:25.042Z,52.67
2023-05-10T11:36:55.751Z,53.40
2023-05-10T11:39:31.599Z,53.57
2023-05-10T11:42:02.291Z,53.66
2023-05-10T11:44:33.874Z,53.23
2023-05-10T11:47:05.427Z,52.97
2023-05-10T11:49:32.459Z,52.02
2023-05-10T11:52:10.268Z,52.84
2023-05-10T11:54:37.374Z,51.25
2023-05-10T11:57:04.940Z,51.53
2023-05-10T11:59:32.748Z,52.21
2023-05-10T12:02:00.220Z,51.95
2023-05-10T12:04:30.781Z,52.67
2023-05-10T12:06:58.404Z,53.34
2023-05-10T12:09:42.706Z,52.30
2023-05-10T12:12:10.934Z,51.60
2023-05-10T12:14:38.197Z,51.75
2023-05-10T12:17:05.329Z,49.68
2023-05-10T12:19:50.621Z,49.42
2023-05-10T12:22:22.010Z,49.48
2023-05-10T12:24:49.080Z,49.53
2023-05-10T12:27:17.175Z,49.64
2023-05-10T12:29:47.982Z,50.55
2023-05-10T12:32:15.004Z,50.77
2023-05-10T12:34:42.082Z,48.92
2023-05-10T12:37:09.568Z,49.07
2023-05-10T12:39:43.697Z,48.96
2023-05-10T12:42:11.940Z,49.03
2023-05-10T12:44:41.165Z,48.82
2023-05-10T12:47:08.477Z,47.37
2023-05-10T12:49:36.293Z,47.60
2023-05-10T12:52:03.461Z,47.86
2023-05-10T12:54:30.560Z,48.60
2023-05-10T12:56:57.487Z,47.38
2023-05-10T12:59:24.465Z,48.34
2023-05-10T13:01:51.408Z,48.17
2023-05-10T13:04:18.368Z,47.88
2023-05-10T13:06:45.508Z,47.91
2023-05-10T13:12:33.597Z,49.66
2023-05-10T13:15:00.698Z,50.48
2023-05-10T13:17:27.917Z,49.34
2023-05-10T13:19:57.725Z,49.02
2023-05-10T13:22:36.348Z,48.31
2023-05-10T13:25:08.060Z,47.52
2023-05-10T13:27:36.651Z,47.79
2023-05-10T13:30:04.626Z,48.16
2023-05-10T13:32:34.380Z,47.54
2023-05-10T13:35:01.832Z,47.51
2023-05-10T13:37:29.446Z,47.39
2023-05-10T13:39:57.553Z,48.08
2023-05-10T13:42:24.921Z,47.15
2023-05-10T13:44:52.479Z,48.09
2023-05-10T13:47:19.692Z,48.16
2023-05-10T13:49:46.832Z,48.85
2023-05-10T13:52:14.732Z,48.92
2023-05-10T13:54:45.867Z,48.83
2023-05-10T13:57:20.136Z,48.62
2023-05-10T13:59:48.339Z,48.74
2023-05-10T14:02:19.007Z,49.65
2023-05-10T14:04:46.113Z,50.22
2023-05-10T14:07:21.600Z,50.78
2023-05-10T14:09:51.689Z,50.59
2023-05-10T14:12:20.880Z,50.43
2023-05-10T14:14:48.028Z,50.70
2023-05-10T14:17:15.384Z,50.67
2023-05-10T14:19:43.481Z,51.10
2023-05-10T14:22:15.468Z,51.19
2023-05-10T14:24:45.790Z,51.22
2023-05-10T14:27:14.771Z,52.01
2023-05-10T14:29:41.786Z,53.65
2023-05-10T14:32:11.406Z,53.28
2023-05-10T14:34:38.520Z,53.94
2023-05-10T14:37:11.970Z,53.98
2023-05-10T14:39:39.078Z,54.13
2023-05-10T14:42:07.098Z,53.21
2023-05-10T14:44:34.657Z,52.56
2023-05-10T14:47:04.373Z,52.49
2023-05-10T14:49:31.961Z,52.81
2023-05-10T14:52:03.230Z,53.01
2023-05-10T14:54:49.219Z,52.71
2023-05-10T14:57:16.361Z,52.95
2023-05-10T14:59:44.315Z,52.81
2023-05-10T15:02:12.222Z,53.04
2023-05-10T15:04:39.770Z,54.02
2023-05-10T15:07:07.260Z,55.12
2023-05-10T15:09:34.399Z,54.55
2023-05-10T15:12:01.694Z,55.10
2023-05-10T15:14:29.137Z,55.34
2023-05-10T15:16:56.394Z,55.19
2023-05-10T15:19:23.615Z,54.58
2023-05-10T15:21:51.972Z,54.18
2023-05-10T15:24:19.546Z,54.37
2023-05-10T15:26:47.150Z,54.53
2023-05-10T15:29:30.895Z,54.49
2023-05-10T15:35:23.630Z,55.54
2023-05-10T15:37:52.381Z,55.62
2023-05-10T15:40:19.473Z,55.57
2023-05-10T15:42:47.951Z,55.28
2023-05-10T15:45:16.647Z,54.32
2023-05-10T15:47:45.651Z,53.88
2023-05-10T15:50:13.278Z,52.92
2023-05-10T15:52:42.179Z,53.15
2023-05-10T15:55:13.349Z,53.75
2023-05-10T15:57:42.848Z,54.66
2023-05-10T16:00:13.851Z,53.76
2023-05-10T16:02:42.978Z,53.96
2023-05-10T16:05:10.415Z,54.00
2023-05-10T16:07:37.492Z,54.10
2023-05-10T16:10:06.607Z,54.27
2023-05-10T16:12:34.521Z,54.37
2023-05-10T16:15:02.220Z,54.54
2023-05-10T16:17:32.231Z,54.84
2023-05-10T16:20:01.290Z,55.20
2023-05-10T16:22:30.923Z,55.38
2023-05-10T16:24:58.100Z,55.54
2023-05-10T16:27:25.829Z,56.30
2023-05-10T16:29:53.078Z,56.29
2023-05-10T16:32:22.567Z,56.17
2023-05-10T16:34:50.359Z,56.77
2023-05-10T16:37:17.673Z,57.19
2023-05-10T16:39:44.663Z,57.34
2023-05-10T16:42:12.773Z,57.76
2023-05-10T16:44:39.972Z,57.63
2023-05-10T16:47:07.999Z,57.96
2023-05-10T16:52:03.797Z,57.72
2023-05-10T16:54:31.056Z,58.16
2023-05-10T16:56:58.060Z,58.10
2023-05-10T16:59:25.089Z,58.00
2023-05-10T17:01:53.367Z,57.86
2023-05-10T17:04:20.560Z,58.25
2023-05-10T17:06:50.226Z,58.67
2023-05-10T17:09:17.257Z,58.14
2023-05-10T17:11:44.197Z,58.57
2023-05-10T17:14:12.352Z,59.03
2023-05-10T17:16:39.553Z,60.16
2023-05-10T17:19:07.581Z,60.28
2023-05-10T17:21:38.201Z,62.03
2023-05-10T17:24:05.537Z,61.34
2023-05-10T17:26:34.684Z,62.09
2023-05-10T17:29:01.719Z,61.40
2023-05-10T17:31:29.040Z,60.57
2023-05-10T17:33:56.668Z,61.34
2023-05-10T17:36:35.803Z,61.71
2023-05-10T17:39:03.979Z,62.73
2023-05-10T17:41:30.951Z,63.41
2023-05-10T17:43:57.946Z,63.05
2023-05-10T17:46:26.017Z,63.10
2023-05-10T17:48:53.668Z,63.22
2023-05-10T17:51:23.412Z,63.39
2023-05-10T17:53:50.510Z,63.65
2023-05-10T17:56:17.462Z,63.31
2023-05-10T17:58:44.833Z,63.16
2023-05-10T18:01:13.110Z,63.24
2023-05-10T18:03:40.310Z,63.11
2023-05-10T18:06:07.866Z,62.52
2023-05-10T18:11:28.410Z,62.94
2023-05-10T18:13:58.622Z,63.08
2023-05-10T18:16:27.059Z,63.52
2023-05-10T18:18:57.028Z,63.88
2023-05-10T18:21:26.247Z,64.02
2023-05-10T18:23:56.377Z,64.01
2023-05-10T18:26:28.731Z,64.34
2023-05-10T18:28:57.650Z,65.03
2023-05-10T18:31:29.724Z,65.18
2023-05-10T18:34:01.319Z,65.12
2023-05-10T18:36:30.278Z,65.32
2023-05-10T18:38:59.108Z,65.47
2023-05-10T18:41:28.920Z,65.16
2023-05-10T18:44:02.271Z,65.40
2023-05-10T18:46:32.212Z,65.26
2023-05-10T18:49:00.941Z,65.34
2023-05-10T18:51:33.378Z,65.08
2023-05-10T18:54:08.159Z,65.62
2023-05-10T18:56:39.691Z,66.06
2023-05-10T18:59:07.517Z,66.30
2023-05-10T19:01:34.536Z,66.42
2023-05-10T19:04:01.617Z,65.48
2023-05-10T19:06:28.858Z,65.42
2023-05-10T19:08:59.549Z,64.86
2023-05-10T19:11:28.928Z,64.75
2023-05-10T19:13:59.852Z,65.11
2023-05-10T19:16:30.757Z,65.56
2023-05-10T19:19:01.360Z,65.90
2023-05-10T19:21:29.944Z,65.66
2023-05-10T19:23:57.841Z,66.35
2023-05-10T19:26:35.832Z,66.16
2023-05-10T19:29:06.522Z,67.85
2023-05-10T19:34:18.236Z,68.30
2023-05-10T19:36:45.425Z,68.20
2023-05-10T19:39:15.795Z,68.47
2023-05-10T19:41:45.214Z,68.74
2023-05-10T19:44:19.360Z,69.40
2023-05-10T19:46:47.216Z,69.82
2023-05-10T19:49:14.575Z,69.52
2023-05-10T19:51:43.529Z,69.52
2023-05-10T19:54:19.176Z,69.73
2023-05-10T19:56:46.296Z,70.03
2023-05-10T19:59:20.756Z,70.24
2023-05-10T20:04:38.271Z,68.16
2023-05-10T20:07:05.374Z,66.38
2023-05-10T20:09:34.001Z,65.43
2023-05-10T20:12:01.040Z,64.08
2023-05-10T20:14:29.682Z,61.97
2023-05-10T20:16:58.567Z,60.57
2023-05-10T20:19:31.540Z,60.01
2023-05-10T20:21:58.904Z,58.89
2023-05-10T20:24:28.173Z,57.99
2023-05-10T20:26:58.251Z,57.61
2023-05-10T20:29:28.214Z,57.25
2023-05-10T20:31:55.970Z,56.99
2023-05-10T20:34:27.974Z,57.03
2023-05-10T20:36:56.937Z,57.60
2023-05-10T20:39:26.193Z,58.37
2023-05-10T20:42:00.278Z,58.23
2023-05-10T20:44:27.816Z,59.55
2023-05-10T20:46:57.671Z,59.68
2023-05-10T20:49:24.658Z,59.53
2023-05-10T20:51:54.016Z,60.70
2023-05-10T20:54:24.611Z,62.15
2023-05-10T20:56:58.467Z,63.63
2023-05-10T20:59:25.972Z,64.99
2023-05-10T21:01:54.256Z,67.09
2023-05-10T21:04:23.084Z,66.94
2023-05-10T21:06:52.786Z,68.40
2023-05-10T21:09:20.017Z,69.14
2023-05-10T21:11:47.410Z,68.95
2023-05-10T21:14:16.053Z,69.09
2023-05-10T21:16:42.990Z,69.90
2023-05-10T21:19:12.012Z,70.36
2023-05-10T21:21:39.507Z,69.89
2023-05-10T21:24:20.423Z,69.51
2023-05-10T21:26:47.311Z,69.21
2023-05-10T21:29:16.224Z,68.70
2023-05-10T21:31:44.353Z,69.47
2023-05-10T21:34:14.525Z,69.16
2023-05-10T21:37:13.573Z,68.76
2023-05-10T21:39:45.904Z,69.64
2023-05-10T21:45:35.999Z,69.25
2023-05-10T21:48:11.748Z,69.36
2023-05-10T21:50:40.098Z,69.93
2023-05-10T21:53:09.621Z,69.82
2023-05-10T21:55:38.430Z,70.66
2023-05-10T21:58:07.154Z,70.70
2023-05-10T22:00:42.943Z,70.13
2023-05-10T22:03:16.568Z,70.51
2023-05-10T22:05:47.508Z,71.33
2023-05-10T22:08:19.321Z,71.36
2023-05-10T22:10:46.721Z,71.54
2023-05-10T22:13:13.678Z,72.15
2023-05-10T22:15:40.630Z,71.91
2023-05-10T22:18:07.874Z,72.22
2023-05-10T22:20:34.893Z,72.37
2023-05-10T22:23:02.193Z,73.47
2023-05-10T22:25:29.137Z,73.41
2023-05-10T22:27:56.040Z,73.58
2023-05-10T22:30:23.098Z,73.47
2023-05-10T22:32:50.039Z,73.87
2023-05-10T22:35:17.140Z,72.94
2023-05-10T22:37:45.010Z,72.69
2023-05-10T22:40:13.292Z,72.77
2023-05-10T22:42:40.259Z,73.66
2023-05-10T22:47:54.451Z,73.87
2023-05-10T22:50:22.320Z,72.59
2023-05-10T22:52:52.679Z,72.72
2023-05-10T22:55:19.641Z,72.54
2023-05-10T22:57:47.209Z,72.70
2023-05-10T23:00:14.667Z,72.68
2023-05-10T23:02:41.836Z,72.31
2023-05-10T23:05:09.567Z,72.16
2023-05-10T23:07:36.506Z,72.73
2023-05-10T23:10:03.491Z,73.58
2023-05-10T23:12:32.309Z,74.03
2023-05-10T23:15:00.138Z,73.55
2023-05-10T23:17:27.258Z,73.41
2023-05-10T23:19:54.330Z,73.61
2023-05-10T23:22:21.259Z,73.51
2023-05-10T23:24:48.190Z,73.45
2023-05-10T23:27:15.126Z,73.55
2023-05-10T23:29:42.252Z,73.81
2023-05-10T23:32:09.225Z,74.13
2023-05-10T23:34:36.255Z,74.15
2023-05-10T23:37:03.231Z,74.46
2023-05-10T23:39:30.107Z,74.71
2023-05-10T23:41:57.102Z,75.17
2023-05-10T23:44:24.430Z,75.00
2023-05-10T23:46:51.670Z,75.71
2023-05-10T23:49:18.624Z,76.28
2023-05-10T23:51:45.646Z,76.64
2023-05-10T23:54:12.726Z,76.02
2023-05-10T23:56:39.743Z,76.02
2023-05-10T23:59:06.753Z,76.80
